Tiempo atmosférico en la estación meteorológica de Capella, Huesca (600 m.)



Fecha
DESCASC
Temp. máxima en grados centígrados (hora)
DESCASC
Temp. mínima en grados centígrados (hora)
DESCASC
Temp. media en grados centígrados
DESCASC
Racha de viento máxima en m/sg (hora)
DESCASC
Velocidad máxima media en intervalos de 10 minutos(hora)
DESCASC
Precipitaciones diarias en mm
DESCASC
Precipitaciones de 00:00 a 06:00 en mm
DESCASC
Precipitaciones de 06:00 a 12:00 en mm
DESCASC
Precipitaciones de 12:00 a 18:00 en mm
DESCASC
Precipitaciones de 18:00 a 24:00 en mm
DESCASC
19-01-2020 10.9 (15:20) 1 (23:50) 5.9 11.67 (13:40) 6.67 (13:20) 1.6 1.6 0 0 0
18-01-2020 11 (15:10) -2.2 (04:10) 4.4 6.39 (12:00) 4.72 (12:00) 0 0 0 0 0
17-01-2020 11.7 (13:40) -0.4 (23:59) 5.6 12.22 (15:30) 7.78 (15:20) 1.2 0.4 0 0.8 0
16-01-2020 14.1 (16:10) -2.4 (-00:0) 5.9 3.33 (01:00) 2.5 (01:00) 0 0 0 0 0
15-01-2020 10.7 (15:30) -4.6 (-00:0) 3 5 (14:30) 3.33 (14:30) 0 0 0 0 0
14-01-2020 10.3 (16:10) -5.4 (-00:0) 2.5 3.33 (11:20) 2.78 (11:20) 0 0 0 0 0
13-01-2020 7.7 (15:10) -6.2 (-00:0) 0.8 3.61 (21:10) 2.5 (15:40) 0 0 0 0 0
12-01-2020 10.8 (16:30) -5.6 (-00:0) 2.6 3.33 (01:00) 2.5 (17:20) 0 0 0 0 0
11-01-2020 9.7 (15:30) -5.1 (-00:0) 2.3 4.72 (16:20) 3.61 (16:10) 0 0 0 0 0
10-01-2020 10.1 (16:10) -0.7 (-00:0) 4.7 5.28 (16:20) 3.33 (15:10) 0.2 0 0.2 0 0
09-01-2020 12.3 (15:40) -1.8 (-00:0) 5.3 4.72 (17:50) 3.61 (18:00) 0 0 0 0 0
08-01-2020 13.8 (16:00) -2.9 (-00:0) 5.5 3.33 (23:10) 2.22 (17:00) 0 0 0 0 0
07-01-2020 4.6 (16:10) -3.4 (-00:0) 0.6 4.44 (14:50) 3.33 (14:20) 0 0 0 0 0
06-01-2020 10.9 (15:40) -3.6 (-00:0) 3.6 3.61 (15:10) 2.5 (13:30) 0 0 0 0 0
05-01-2020 9.6 (15:50) -4.7 (-00:0) 2.5 3.89 (12:30) 2.78 (12:30) 0 0 0 0 0
04-01-2020 8.1 (16:10) -4.6 (-00:0) 1.8 4.72 (14:30) 3.33 (14:20) 0 0 0 0 0
03-01-2020 1.3 (14:30) -3.6 (-00:0) -1.1 4.17 (15:00) 3.06 (15:00) 0 0 0 0 0
02-01-2020 6.4 (15:10) -4.2 (-00:0) 1.1 3.33 (15:40) 2.5 (15:20) 0 0 0 0 0
01-01-2020 3.5 (17:00) -1.9 (-00:0) 0.8 3.61 (13:20) 1.94 (19:00) 0 0 0 0 0
31-12-2019 3.1 (16:30) -0.6 (-00:0) 1.2 3.61 (04:10) 2.22 (04:10) 0 0 0 0 0
30-12-2019 -- (--) -- (--) -- -- (--) -- (--) -- 0 0 0 --
29-12-2019 9.3 (14:50) -1.8 (-00:0) 3.8 4.17 (15:40) 3.33 (15:40) 0 0 0 0 0
28-12-2019 11.4 (15:40) -2.9 (-00:0) 4.2 3.61 (14:10) 2.5 (14:10) 0 0 0 0 0
27-12-2019 9.8 (15:30) -2.8 (-00:0) 3.5 3.61 (14:30) 2.78 (14:30) 0 0 0 0 0
26-12-2019 11.9 (14:10) 0.8 (00:00) 6.3 3.89 (13:40) 2.78 (13:30) 0 0 0 0 0
25-12-2019 15.2 (16:30) 0.7 (00:00) 7.9 3.61 (20:40) 2.22 (13:50) 0 0 0 0 0
24-12-2019 14 (16:10) 0.9 (00:00) 7.4 3.89 (19:40) 2.5 (13:40) 0 0 0 0 0
23-12-2019 12.6 (15:10) 0.5 (00:00) 6.6 7.5 (00:20) 4.72 (00:20) 0 0 0 0 0
22-12-2019 11.4 (14:10) 5.1 (00:00) 8.2 16.67 (09:40) 9.17 (08:40) 0.6 0.2 0.2 0.2 0

Gráficas

Temp. máximas Temp. mínimas Temp. medias Precipitaciones Rachas de viento máximas Velocidades máximas media en intervalos de 10 minutos

Datos horarios

Fecha y hora oficial Temperatura (ºC) Velocidad del viento (km/h) Dirección del viento Racha (km/h) Dirección de racha Precipitación (mm) Presión (hPa) Tendencia (hPa) Humedad (%)
2020-01-20 23:00:00 1.5 4 Sur 8 Oeste 0 -- -- 72
2020-01-20 22:00:00 1.5 6 Sur 8 Sur 0 -- -- 70
2020-01-20 21:00:00 2.1 8 Sudeste 11 Sudeste 0 -- -- 65
2020-01-20 20:00:00 1.7 4 Nordeste 10 Nordeste 0 -- -- 68
2020-01-20 19:00:00 3.1 3 Sudeste 6 Sur 0 -- -- 61
2020-01-20 18:00:00 4.7 5 Sur 8 Sur 0 -- -- 52
2020-01-20 17:00:00 6.9 0 Calma 4 Noroeste 0 -- -- 48
2020-01-20 16:00:00 7.2 5 Norte 9 Sudoeste 0 -- -- 44
2020-01-20 15:00:00 7.8 5 Sur 8 Sudoeste 0 -- -- 27
2020-01-20 14:00:00 7.8 3 Oeste 6 Oeste 0 -- -- 30
2020-01-20 13:00:00 6.3 3 Oeste 7 Noroeste 0 -- -- 42
2020-01-20 12:00:00 3.3 4 Oeste 8 Oeste 0 -- -- 49
2020-01-20 11:00:00 1.9 4 Oeste 8 Oeste 0 -- -- 55
2020-01-20 10:00:00 -0.1 0 Calma 7 Este 0 -- -- 55
2020-01-20 09:00:00 -1.5 3 Nordeste 8 Nordeste 0 -- -- 60
2020-01-20 08:00:00 -2.3 5 Este 8 Este 0 -- -- 61
2020-01-20 07:00:00 -2.8 3 Este 8 Este 0 -- -- 61
2020-01-20 06:00:00 -2.8 5 Sudeste 7 Sudeste 0 -- -- 63
2020-01-20 05:00:00 -3.7 3 Nordeste 6 Este 0 -- -- 70
2020-01-20 04:00:00 -3.7 0 Calma 6 Sudeste 0 -- -- 68
2020-01-20 03:00:00 -2.6 0 Calma 7 Oeste 0 -- -- 61
2020-01-20 02:00:00 -1.2 2 Este 7 Oeste 0 -- -- 53
2020-01-20 01:00:00 1.2 7 Este 17 Este 0 -- -- 45
2020-01-20 00:00:00 1.3 7 Este 13 Este 0 -- -- 43
2020-01-19 23:00:00 2.6 7 Sudeste 22 Nordeste 0 -- -- 37
2020-01-19 22:00:00 3.2 9 Este 14 Sudeste 0 -- -- 36
2020-01-19 21:00:00 2.9 8 Nordeste 12 Nordeste 0 -- -- 36
2020-01-19 20:00:00 3 8 Este 10 Este 0 -- -- 37
2020-01-19 19:00:00 5.2 7 Nordeste 26 Norte 0 -- -- 29
2020-01-19 18:00:00 6.9 17 Norte 28 Norte 0 -- -- 23
2020-01-19 17:00:00 9 16 Norte 34 Norte 0 -- -- 20
2020-01-19 16:00:00 9.9 19 Nordeste 33 Norte 0 -- -- 23
2020-01-19 15:00:00 10.4 19 Nordeste 39 Norte 0 -- -- 24
2020-01-19 14:00:00 10.4 17 Nordeste 42 Norte 0 -- -- 25
2020-01-19 13:00:00 9.9 15 Norte 39 Norte 0 -- -- 36
2020-01-19 12:00:00 6.7 3 Norte 13 Norte 0 -- -- 78
2020-01-19 11:00:00 4.7 5 Noroeste 13 Sur 0 -- -- 95
2020-01-19 10:00:00 3.8 6 Sudoeste 12 Sudoeste 0 -- -- 98
2020-01-19 09:00:00 1.6 2 Norte 6 Este 0 -- -- 97
2020-01-19 08:00:00 2.7 3 Este 5 Este 0 -- -- 97
2020-01-19 07:00:00 3.5 3 Sur 6 Sur 0 -- -- 96
2020-01-19 06:00:00 3.7 2 Noroeste 5 Sudeste 0.2 -- -- 95
2020-01-19 05:00:00 3.8 4 Este 9 Sudoeste 0 -- -- 94
2020-01-19 04:00:00 4.3 8 Sudoeste 18 Sur 1 -- -- 91
2020-01-19 03:00:00 4.6 9 Sudoeste 17 Sudoeste 0.4 -- -- 87
2020-01-19 02:00:00 5.8 7 Oeste 23 Nordeste 0 -- -- 75
2020-01-19 01:00:00 6.2 15 Nordeste 22 Este 0 -- -- 67
2020-01-19 00:00:00 5 7 Nordeste 11 Nordeste 0 -- -- 74
2020-01-18 23:00:00 5.3 3 Nordeste 6 Nordeste 0 -- -- 74
2020-01-18 22:00:00 5.3 0 Calma 7 Noroeste 0 -- -- 78
2020-01-18 21:00:00 5.8 4 Este 5 Sudeste 0 -- -- 77
2020-01-18 20:00:00 6.3 3 Oeste 5 Oeste 0 -- -- 70
2020-01-18 19:00:00 7.2 4 Sur 9 Sur 0 -- -- 66
2020-01-18 18:00:00 8.1 0 Calma 10 Sudoeste 0 -- -- 59
2020-01-18 17:00:00 9.8 2 Sudoeste 6 Sudoeste 0 -- -- 48
2020-01-18 16:00:00 10.9 0 Calma 6 Oeste 0 -- -- 41
2020-01-18 15:00:00 10.7 4 Sur 7 Sudoeste 0 -- -- 40
2020-01-18 14:00:00 9 2 Noroeste 12 Sudoeste 0 -- -- 49
2020-01-18 13:00:00 6.9 7 Sudoeste 20 Oeste 0 -- -- 59
2020-01-18 12:00:00 4.9 17 Sudoeste 23 Sudoeste 0 -- -- 72
2020-01-18 11:00:00 3.6 6 Nordeste 12 Este 0 -- -- 72
2020-01-18 10:00:00 0.3 7 Nordeste 11 Este 0 -- -- 90
2020-01-18 09:00:00 -0.1 5 Sudoeste 12 Sur 0 -- -- 88
2020-01-18 08:00:00 -0.3 3 Sudeste 10 Oeste 0 -- -- 89
2020-01-18 07:00:00 -1 4 Nordeste 9 Sudeste 0 -- -- 89
2020-01-18 06:00:00 -1.1 5 Este 8 Sur 0 -- -- 89
2020-01-18 05:00:00 -1.6 3 Sudeste 8 Nordeste 0 -- -- 92
2020-01-18 04:00:00 -2.1 3 Nordeste 12 Nordeste 0 -- -- 88
2020-01-18 03:00:00 -1.7 3 Nordeste 12 Nordeste 0 -- -- 88
2020-01-18 02:00:00 -1.3 6 Este 10 Nordeste 0 -- -- 89
2020-01-18 01:00:00 -0.8 4 Este 13 Nordeste 0 -- -- 86
2020-01-18 00:00:00 -0.4 8 Nordeste 12 Nordeste 0 -- -- 87
2020-01-17 23:00:00 0.4 3 Nordeste 10 Este 0 -- -- 83
2020-01-17 22:00:00 2 8 Nordeste 13 Nordeste 0 -- -- 81
2020-01-17 21:00:00 4.7 7 Sudoeste 21 Sudoeste 0 -- -- 65
2020-01-17 20:00:00 6 14 Sur 20 Sur 0 -- -- 62
2020-01-17 19:00:00 6.6 12 Sudoeste 21 Sudoeste 0 -- -- 62
2020-01-17 18:00:00 8.2 15 Sudoeste 28 Sudoeste 0 -- -- 58
2020-01-17 17:00:00 10.1 18 Oeste 30 Oeste 0 -- -- 55
2020-01-17 16:00:00 10.7 17 Oeste 44 Oeste 0 -- -- 54
2020-01-17 15:00:00 9.6 15 Oeste 39 Oeste 0.6 -- -- 63
2020-01-17 14:00:00 11.1 22 Sudoeste 37 Sudoeste 0 -- -- 69
2020-01-17 13:00:00 10.8 16 Sudoeste 24 Sudoeste 0.2 -- -- 76
2020-01-17 12:00:00 8.7 7 Oeste 12 Oeste 0 -- -- 86
2020-01-17 11:00:00 5.8 0 Calma 4 Norte 0 -- -- 99
2020-01-17 10:00:00 3.7 4 Sudeste 6 Sudeste 0 -- -- 100
2020-01-17 09:00:00 1.6 0 Calma 6 Sur 0 -- -- 98
2020-01-17 08:00:00 2.9 2 Sudeste 5 Este 0 -- -- 98
2020-01-17 07:00:00 3.1 4 Sudeste 5 Sudeste 0 -- -- 98
2020-01-17 06:00:00 2.9 3 Sudeste 5 Sudeste 0 -- -- 98
2020-01-17 05:00:00 2.7 5 Sudoeste 15 Sudoeste 0.4 -- -- 97
2020-01-17 04:00:00 1.9 3 Sudoeste 7 Oeste 0 -- -- 97
2020-01-17 03:00:00 2.2 3 Sudeste 9 Nordeste 0 -- -- 94
2020-01-17 02:00:00 2.8 6 Nordeste 12 Nordeste 0 -- -- 95
2020-01-17 01:00:00 2.7 7 Nordeste 10 Nordeste 0 -- -- 94
2020-01-17 00:00:00 2.9 0 Calma 6 Este 0 -- -- 90
2020-01-16 23:00:00 2.8 3 Sur 5 Sur 0 -- -- 90
2020-01-16 22:00:00 4.6 4 Sudeste 6 Sudeste 0 -- -- 87
2020-01-16 21:00:00 6.6 3 Norte 8 Nordeste 0 -- -- 81
2020-01-16 20:00:00 6.8 5 Este 9 Este 0 -- -- 81
2020-01-16 19:00:00 7.1 4 Sudeste 7 Este 0 -- -- 78
2020-01-16 18:00:00 9.4 4 Oeste 11 Sur 0 -- -- 68
2020-01-16 17:00:00 13.6 6 Sudoeste 10 Sudoeste 0 -- -- 55
2020-01-16 16:00:00 14 8 Sudoeste 11 Sudoeste 0 -- -- 53
2020-01-16 15:00:00 13.7 6 Oeste 12 Oeste 0 -- -- 50
2020-01-16 14:00:00 11.9 6 Oeste 12 Sudoeste 0 -- -- 56
2020-01-16 13:00:00 9.8 8 Oeste 10 Oeste 0 -- -- 68
2020-01-16 12:00:00 7 0 Calma 4 Nordeste 0 -- -- 73
2020-01-16 11:00:00 3.6 0 Calma 5 Oeste 0 -- -- 87
2020-01-16 10:00:00 0.1 3 Oeste 6 Nordeste 0 -- -- 98
2020-01-16 09:00:00 -2.1 3 Sudeste 6 Sur 0 -- -- 98
2020-01-16 08:00:00 -1.8 5 Este 8 Este 0 -- -- 97
2020-01-16 07:00:00 -2 4 Este 9 Este 0 -- -- 98
2020-01-16 06:00:00 -2.4 3 Nordeste 6 Este 0 -- -- 97
2020-01-16 05:00:00 -1.6 3 Sudeste 8 Nordeste 0 -- -- 97
2020-01-16 04:00:00 -1.6 4 Este 6 Este 0 -- -- 97
2020-01-16 03:00:00 -1.3 3 Sudeste 8 Este 0 -- -- 94
2020-01-16 02:00:00 -0.7 2 Este 9 Nordeste 0 -- -- 94
2020-01-16 01:00:00 0.6 9 Nordeste 12 Nordeste 0 -- -- 94
2020-01-16 00:00:00 1 4 Nordeste 8 Este 0 -- -- 93
2020-01-15 23:00:00 1.5 6 Este 10 Nordeste 0 -- -- 92
2020-01-15 22:00:00 2 3 Este 9 Nordeste 0 -- -- 90
2020-01-15 21:00:00 2 2 Este 12 Nordeste 0 -- -- 87
2020-01-15 20:00:00 3.3 4 Nordeste 10 Nordeste 0 -- -- 85
2020-01-15 19:00:00 3.9 0 Calma 8 Sudeste 0 -- -- 80
2020-01-15 18:00:00 6.4 2 Sudoeste 14 Oeste 0 -- -- 74
2020-01-15 17:00:00 9 12 Oeste 16 Sudoeste 0 -- -- 65
2020-01-15 16:00:00 10.6 10 Oeste 18 Sudoeste 0 -- -- 60
2020-01-15 15:00:00 10.5 8 Sudoeste 18 Oeste 0 -- -- 59
2020-01-15 14:00:00 8.9 9 Oeste 13 Oeste 0 -- -- 59
2020-01-15 13:00:00 6.7 4 Oeste 10 Oeste 0 -- -- 58
2020-01-15 12:00:00 3.1 10 Oeste 14 Oeste 0 -- -- 74
2020-01-15 11:00:00 0.2 2 Noroeste 8 Este 0 -- -- 82
2020-01-15 10:00:00 -2.3 5 Sudeste 9 Sudeste 0 -- -- 90
2020-01-15 09:00:00 -4.1 3 Nordeste 5 Nordeste 0 -- -- 93
2020-01-15 08:00:00 -3.8 3 Sudeste 5 Sudoeste 0 -- -- 92
2020-01-15 07:00:00 -3.2 0 Calma 12 Nordeste 0 -- -- 86
2020-01-15 06:00:00 -4 5 Este 7 Sudeste 0 -- -- 93
2020-01-15 05:00:00 -3.8 2 Este 7 Nordeste 0 -- -- 90
2020-01-15 04:00:00 -4 4 Nordeste 8 Sudeste 0 -- -- 89
2020-01-15 03:00:00 -2.9 4 Este 6 Este 0 -- -- 89
2020-01-15 02:00:00 -2.6 4 Este 9 Nordeste 0 -- -- 88
2020-01-15 01:00:00 -2.7 5 Nordeste 8 Nordeste 0 -- -- 90
2020-01-15 00:00:00 -1.8 3 Este 7 Este 0 -- -- 84
2020-01-14 23:00:00 -1.4 3 Nordeste 6 Este 0 -- -- 83
2020-01-14 22:00:00 -0.2 4 Este 10 Este 0 -- -- 79
2020-01-14 21:00:00 0 5 Nordeste 12 Este 0 -- -- 79
2020-01-14 20:00:00 0.6 5 Nordeste 10 Nordeste 0 -- -- 79
2020-01-14 19:00:00 1.5 2 Norte 8 Este 0 -- -- 75
2020-01-14 18:00:00 4.7 5 Sudeste 11 Sudoeste 0 -- -- 65
2020-01-14 17:00:00 9.1 9 Sudoeste 12 Sudoeste 0 -- -- 50
2020-01-14 16:00:00 10.1 5 Oeste 11 Oeste 0 -- -- 46
2020-01-14 15:00:00 9.2 8 Oeste 11 Oeste 0 -- -- 53
2020-01-14 14:00:00 8.1 3 Oeste 6 Oeste 0 -- -- 54
2020-01-14 13:00:00 6 4 Sudoeste 10 Sudoeste 0 -- -- 55
2020-01-14 12:00:00 3.1 9 Sudoeste 12 Oeste 0 -- -- 69
2020-01-14 11:00:00 1 7 Oeste 9 Sudoeste 0 -- -- 80
2020-01-14 10:00:00 -1 3 Norte 10 Este 0 -- -- 84
2020-01-14 09:00:00 -4.6 2 Este 7 Sudeste 0 -- -- 93
2020-01-14 08:00:00 -5.3 3 Sudeste 5 Este 0 -- -- 93
2020-01-14 07:00:00 -4.8 4 Nordeste 8 Sudeste 0 -- -- 91
2020-01-14 06:00:00 -4.3 4 Norte 8 Sudeste 0 -- -- 90
2020-01-14 05:00:00 -4.6 3 Este 8 Sudeste 0 -- -- 90
2020-01-14 04:00:00 -4.1 3 Sur 8 Este 0 -- -- 90
2020-01-14 03:00:00 -3.2 3 Sudeste 8 Sudeste 0 -- -- 89
2020-01-14 02:00:00 -2.6 2 Nordeste 8 Este 0 -- -- 86
2020-01-14 01:00:00 -2.3 4 Sudeste 7 Este 0 -- -- 89
2020-01-14 00:00:00 -1.4 3 Nordeste 7 Este 0 -- -- 84
2020-01-13 23:00:00 -1 5 Este 9 Nordeste 0 -- -- 84
2020-01-13 22:00:00 -0.5 6 Sudeste 13 Este 0 -- -- 80
2020-01-13 21:00:00 -0.7 8 Nordeste 12 Nordeste 0 -- -- 82
2020-01-13 20:00:00 -0.1 0 Calma 9 Este 0 -- -- 78
2020-01-13 19:00:00 0.7 2 Nordeste 6 Nordeste 0 -- -- 78
2020-01-13 18:00:00 3.5 2 Nordeste 8 Oeste 0 -- -- 71
2020-01-13 17:00:00 6.8 5 Sudoeste 7 Sudoeste 0 -- -- 56
2020-01-13 16:00:00 7.5 5 Sudoeste 12 Sudoeste 0 -- -- 54
2020-01-13 15:00:00 7.6 5 Sudoeste 12 Sudoeste 0 -- -- 45
2020-01-13 14:00:00 6.1 7 Sudoeste 10 Oeste 0 -- -- 57
2020-01-13 13:00:00 3.7 3 Noroeste 7 Oeste 0 -- -- 71
2020-01-13 12:00:00 1.7 4 Oeste 8 Oeste 0 -- -- 78
2020-01-13 11:00:00 -0.4 2 Noroeste 5 Oeste 0 -- -- 85
2020-01-13 10:00:00 -2.9 0 Calma 8 Sudeste 0 -- -- 94
2020-01-13 09:00:00 -5.6 2 Sudeste 4 Sudeste 0 -- -- 94
2020-01-13 08:00:00 -5.8 2 Nordeste 6 Nordeste 0 -- -- 93
2020-01-13 07:00:00 -5.3 3 Este 6 Este 0 -- -- 95
2020-01-13 06:00:00 -5.4 2 Este 7 Sudeste 0 -- -- 95
2020-01-13 05:00:00 -5.3 0 Calma 6 Nordeste 0 -- -- 94
2020-01-13 04:00:00 -4.9 3 Este 6 Este 0 -- -- 94
2020-01-13 03:00:00 -4.3 5 Este 7 Este 0 -- -- 95
2020-01-13 02:00:00 -4.4 2 Nordeste 9 Sudeste 0 -- -- 93
2020-01-13 01:00:00 -3.3 3 Nordeste 9 Este 0 -- -- 94
2020-01-13 00:00:00 -3.4 4 Este 8 Nordeste 0 -- -- 96
2020-01-12 23:00:00 -3.3 0 Calma 6 Sudeste 0 -- -- 92
2020-01-12 22:00:00 -2.3 2 Nordeste 6 Este 0 -- -- 92
2020-01-12 21:00:00 -2.3 0 Calma 4 Este 0 -- -- 92
2020-01-12 20:00:00 -1 0 Calma 5 Sur 0 -- -- 88
2020-01-12 19:00:00 0.7 2 Sudoeste 7 Sur 0 -- -- 82
2020-01-12 18:00:00 4.7 5 Sur 12 Sudoeste 0 -- -- 71
2020-01-12 17:00:00 9.1 6 Oeste 9 Sudoeste 0 -- -- 57
2020-01-12 16:00:00 10.4 5 Sudoeste 8 Oeste 0 -- -- 46
2020-01-12 15:00:00 9.4 7 Sudoeste 9 Oeste 0 -- -- 47
2020-01-12 14:00:00 8.1 5 Oeste 9 Sudoeste 0 -- -- 48
2020-01-12 13:00:00 5.6 2 Nordeste 4 Nordeste 0 -- -- 64
2020-01-12 12:00:00 2.6 3 Nordeste 9 Oeste 0 -- -- 73
2020-01-12 11:00:00 -0.3 5 Oeste 7 Oeste 0 -- -- 84
2020-01-12 10:00:00 -2.5 2 Nordeste 5 Este 0 -- -- 87
2020-01-12 09:00:00 -5.3 3 Este 6 Nordeste 0 -- -- 93
2020-01-12 08:00:00 -5.1 0 Calma 8 Este 0 -- -- 91
2020-01-12 07:00:00 -5.1 4 Este 8 Nordeste 0 -- -- 94
2020-01-12 06:00:00 -5.6 2 Sudeste 6 Nordeste 0 -- -- 94
2020-01-12 05:00:00 -4.8 3 Nordeste 6 Este 0 -- -- 92
2020-01-12 04:00:00 -3.9 3 Nordeste 6 Nordeste 0 -- -- 90
2020-01-12 03:00:00 -3.1 3 Este 8 Este 0 -- -- 90
2020-01-12 02:00:00 -2.7 5 Nordeste 10 Nordeste 0 -- -- 92
2020-01-12 01:00:00 -2 5 Nordeste 12 Nordeste 0 -- -- 91
2020-01-12 00:00:00 -2.2 5 Nordeste 9 Este 0 -- -- 93
2020-01-11 23:00:00 -1.6 5 Este 9 Este 0 -- -- 91
2020-01-11 22:00:00 -0.8 6 Este 12 Este 0 -- -- 90
2020-01-11 21:00:00 -0.5 4 Nordeste 11 Nordeste 0 -- -- 88
2020-01-11 20:00:00 0 3 Norte 10 Este 0 -- -- 86
2020-01-11 19:00:00 0.4 3 Nordeste 7 Sur 0 -- -- 85
2020-01-11 18:00:00 2.9 3 Sur 13 Sudoeste 0 -- -- 78
2020-01-11 17:00:00 6.7 11 Oeste 17 Oeste 0 -- -- 67
2020-01-11 16:00:00 9 10 Oeste 14 Oeste 0 -- -- 52
2020-01-11 15:00:00 9.1 7 Sudoeste 12 Sudoeste 0 -- -- 52
2020-01-11 14:00:00 7.7 5 Oeste 9 Oeste 0 -- -- 55
2020-01-11 13:00:00 5.9 2 Norte 9 Oeste 0 -- -- 56
2020-01-11 12:00:00 2.9 6 Oeste 10 Oeste 0 -- -- 79
2020-01-11 11:00:00 0.9 0 Calma 4 Norte 0 -- -- 74
2020-01-11 10:00:00 -2.1 2 Nordeste 6 Nordeste 0 -- -- 93
2020-01-11 09:00:00 -5.1 4 Oeste 10 Nordeste 0 -- -- 92
2020-01-11 08:00:00 -4 4 Este 8 Nordeste 0 -- -- 92
2020-01-11 07:00:00 -4.7 2 Nordeste 4 Este 0 -- -- 92
2020-01-11 06:00:00 -3.8 3 Sudeste 5 Este 0 -- -- 92
2020-01-11 05:00:00 -3.1 3 Sudeste 7 Sudeste 0 -- -- 90
2020-01-11 04:00:00 -2.8 4 Sur 9 Este 0 -- -- 91
2020-01-11 03:00:00 -2 4 Sur 10 Nordeste 0 -- -- 93
2020-01-11 02:00:00 -1.5 8 Nordeste 13 Nordeste 0 -- -- 95
2020-01-11 01:00:00 -1.3 4 Nordeste 14 Sur 0 -- -- 95
2020-01-11 00:00:00 -0.7 8 Norte 14 Este 0 -- -- 95
2020-01-10 23:00:00 -0.1 4 Este 9 Nordeste 0 -- -- 95
2020-01-10 22:00:00 1 3 Este 10 Este 0 -- -- 93
2020-01-10 21:00:00 1.4 5 Este 10 Nordeste 0 -- -- 93
2020-01-10 20:00:00 2.2 2 Nordeste 8 Este 0 -- -- 88
2020-01-10 19:00:00 3.8 0 Calma 10 Sur 0 -- -- 87
2020-01-10 18:00:00 6.3 6 Sur 13 Sudoeste 0 -- -- 82
2020-01-10 17:00:00 9.3 6 Oeste 19 Oeste 0 -- -- 72
2020-01-10 16:00:00 10 10 Oeste 18 Oeste 0 -- -- 67
2020-01-10 15:00:00 9.2 9 Sudoeste 17 Oeste 0 -- -- 78
2020-01-10 14:00:00 6.6 5 Sudoeste 11 Oeste 0 -- -- 91
2020-01-10 13:00:00 5.4 2 Oeste 9 Oeste 0 -- -- 99
2020-01-10 12:00:00 4.9 3 Sudoeste 10 Nordeste 0 -- -- 100
2020-01-10 11:00:00 4.4 3 Nordeste 6 Este 0 -- -- 100
2020-01-10 10:00:00 3.9 4 Sur 11 Sudoeste 0 -- -- 100
2020-01-10 09:00:00 3.7 5 Sudoeste 15 Sudoeste 0 -- -- 100
2020-01-10 08:00:00 3.4 4 Oeste 12 Oeste 0.2 -- -- 100
2020-01-10 07:00:00 3.6 6 Este 13 Este 0 -- -- 100
2020-01-10 06:00:00 2.9 4 Este 6 Este 0 -- -- 99
2020-01-10 05:00:00 2.7 3 Sudeste 6 Oeste 0 -- -- 98
2020-01-10 04:00:00 2.8 4 Sudeste 8 Noroeste 0 -- -- 96
2020-01-10 03:00:00 3.9 0 Calma 5 Sudoeste 0 -- -- 96
2020-01-10 02:00:00 4.4 0 Calma 6 Sudoeste 0 -- -- 94
2020-01-10 01:00:00 4.4 2 Norte 7 Nordeste 0 -- -- 93
2020-01-10 00:00:00 4.7 0 Calma 8 Sur 0 -- -- 92
2020-01-09 23:00:00 4.7 3 Nordeste 7 Nordeste 0 -- -- 91
2020-01-09 22:00:00 5.1 4 Este 10 Sur 0 -- -- 91
2020-01-09 21:00:00 5.2 6 Sur 10 Sudoeste 0 -- -- 92
2020-01-09 20:00:00 4.4 4 Este 8 Norte 0 -- -- 90
2020-01-09 19:00:00 6 4 Este 15 Sudoeste 0 -- -- 87
2020-01-09 18:00:00 7.2 13 Sudoeste 17 Sudoeste 0 -- -- 84
2020-01-09 17:00:00 10.2 9 Oeste 13 Oeste 0 -- -- 71
2020-01-09 16:00:00 12.2 7 Oeste 13 Sudoeste 0 -- -- 62
2020-01-09 15:00:00 11.8 9 Sudoeste 13 Oeste 0 -- -- 63
2020-01-09 14:00:00 10.9 7 Sudoeste 14 Sudoeste 0 -- -- 63
2020-01-09 13:00:00 9.1 8 Oeste 10 Sudoeste 0 -- -- 73
2020-01-09 12:00:00 6.1 3 Sudoeste 5 Oeste 0 -- -- 84
2020-01-09 11:00:00 3.4 3 Oeste 4 Oeste 0 -- -- 94
2020-01-09 10:00:00 1.3 0 Calma 5 Este 0 -- -- 100
2020-01-09 09:00:00 -1.8 2 Nordeste 8 Sur 0 -- -- 98
2020-01-09 08:00:00 -1.2 3 Este 6 Este 0 -- -- 96
2020-01-09 07:00:00 -0.5 3 Este 8 Este 0 -- -- 97
2020-01-09 06:00:00 -0.2 5 Este 8 Este 0 -- -- 98
2020-01-09 05:00:00 0 3 Sudeste 8 Nordeste 0 -- -- 96
2020-01-09 04:00:00 0.4 3 Nordeste 8 Este 0 -- -- 96
2020-01-09 03:00:00 0.6 4 Este 6 Nordeste 0 -- -- 97
2020-01-09 02:00:00 0.7 3 Este 9 Este 0 -- -- 95
2020-01-09 01:00:00 1.3 2 Nordeste 8 Este 0 -- -- 94
2020-01-09 00:00:00 1.4 3 Sudeste 12 Este 0 -- -- 93
2020-01-08 23:00:00 2.5 6 Este 10 Este 0 -- -- 93
2020-01-08 22:00:00 2.8 6 Este 10 Nordeste 0 -- -- 92
2020-01-08 21:00:00 3.7 5 Este 9 Este 0 -- -- 88
2020-01-08 20:00:00 4.5 6 Nordeste 10 Nordeste 0 -- -- 88
2020-01-08 19:00:00 5.4 2 Sudoeste 7 Sur 0 -- -- 85
2020-01-08 18:00:00 7.5 4 Sudoeste 8 Oeste 0 -- -- 74
2020-01-08 17:00:00 12.2 8 Oeste 11 Oeste 0 -- -- 61
2020-01-08 16:00:00 13.8 5 Oeste 9 Oeste 0 -- -- 51
2020-01-08 15:00:00 13.1 5 Oeste 9 Sudoeste 0 -- -- 55
2020-01-08 14:00:00 11.9 5 Sudoeste 11 Sudoeste 0 -- -- 56
2020-01-08 13:00:00 9.2 6 Oeste 9 Noroeste 0 -- -- 70
2020-01-08 12:00:00 6.1 2 Oeste 6 Oeste 0 -- -- 84
2020-01-08 11:00:00 2.8 3 Nordeste 6 Este 0 -- -- 100
2020-01-08 10:00:00 -0.1 2 Nordeste 6 Sur 0 -- -- 100
2020-01-08 09:00:00 -2.7 3 Nordeste 7 Sudeste 0 -- -- 100
2020-01-08 08:00:00 -2.8 4 Sudoeste 5 Sur 0 -- -- 100
2020-01-08 07:00:00 -2.5 0 Calma 5 Sudeste 0 -- -- 100
2020-01-08 06:00:00 -2.6 5 Sudeste 7 Sudeste 0 -- -- 100
2020-01-08 05:00:00 -2.8 2 Nordeste 8 Sudeste 0 -- -- 100
2020-01-08 04:00:00 -2.5 4 Oeste 6 Oeste 0 -- -- 100
2020-01-08 03:00:00 -2.8 2 Sudeste 5 Nordeste 0 -- -- 100
2020-01-08 02:00:00 -2.6 0 Calma 5 Sudeste 0 -- -- 100
2020-01-08 01:00:00 -2.2 0 Calma 4 Sur 0 -- -- 100
2020-01-08 00:00:00 -1.5 2 Sur 5 Nordeste 0 -- -- 100
2020-01-07 23:00:00 -0.9 3 Este 5 Este 0 -- -- 100
2020-01-07 22:00:00 -0.3 4 Este 8 Este 0 -- -- 100
2020-01-07 21:00:00 0.2 3 Sudeste 5 Sur 0 -- -- 100
2020-01-07 20:00:00 0.7 2 Sudeste 6 Este 0 -- -- 100
2020-01-07 19:00:00 1.2 3 Este 8 Sur 0 -- -- 99
2020-01-07 18:00:00 1.5 4 Sudoeste 14 Sudoeste 0 -- -- 98
2020-01-07 17:00:00 3.1 10 Sudoeste 16 Sudoeste 0 -- -- 91
2020-01-07 16:00:00 4.5 11 Sudoeste 15 Sudoeste 0 -- -- 92
2020-01-07 15:00:00 2.8 9 Sudoeste 16 Sudoeste 0 -- -- 100
2020-01-07 14:00:00 2 10 Oeste 14 Sudoeste 0 -- -- 100
2020-01-07 13:00:00 1 9 Oeste 15 Sudoeste 0 -- -- 100
2020-01-07 12:00:00 -0.6 5 Oeste 9 Oeste 0 -- -- 100
2020-01-07 11:00:00 -2.2 0 Calma 5 Norte 0 -- -- 100
2020-01-07 10:00:00 -2.9 3 Norte 5 Norte 0 -- -- 100
2020-01-07 09:00:00 -3.4 4 Nordeste 5 Nordeste 0 -- -- 100
2020-01-07 08:00:00 -3.1 2 Norte 5 Nordeste 0 -- -- 100
2020-01-07 07:00:00 -2.6 2 Nordeste 6 Nordeste 0 -- -- 100
2020-01-07 06:00:00 -2.1 0 Calma 7 Nordeste 0 -- -- 100
2020-01-07 05:00:00 -1.6 3 Nordeste 6 Nordeste 0 -- -- 100
2020-01-07 04:00:00 -1.2 5 Norte 8 Norte 0 -- -- 100
2020-01-07 03:00:00 -0.7 5 Nordeste 7 Nordeste 0 -- -- 100
2020-01-07 02:00:00 -0.4 3 Nordeste 8 Nordeste 0 -- -- 100
2020-01-07 01:00:00 -0.1 5 Este 9 Este 0 -- -- 99
2020-01-07 00:00:00 0.2 2 Noroeste 6 Nordeste 0 -- -- 100
2020-01-06 23:00:00 0.7 0 Calma 6 Nordeste 0 -- -- 99
2020-01-06 22:00:00 1 4 Este 8 Sudeste 0 -- -- 98
2020-01-06 21:00:00 0.9 3 Nordeste 4 Noroeste 0 -- -- 96
2020-01-06 20:00:00 1 0 Calma 8 Sudoeste 0 -- -- 94
2020-01-06 19:00:00 2.2 4 Sur 8 Sudoeste 0 -- -- 92
2020-01-06 18:00:00 4.8 4 Sur 13 Oeste 0 -- -- 82
2020-01-06 17:00:00 9.5 7 Oeste 11 Oeste 0 -- -- 64
2020-01-06 16:00:00 10.9 7 Oeste 13 Sudoeste 0 -- -- 61
2020-01-06 15:00:00 10.3 8 Sudoeste 12 Sudoeste 0 -- -- 61
2020-01-06 14:00:00 9.1 8 Sudoeste 11 Sudoeste 0 -- -- 54
2020-01-06 13:00:00 7.3 6 Oeste 9 Sudoeste 0 -- -- 63
2020-01-06 12:00:00 4.8 4 Noroeste 6 Oeste 0 -- -- 82
2020-01-06 11:00:00 2.6 2 Este 4 Nordeste 0 -- -- 85
2020-01-06 10:00:00 -0.7 2 Sudeste 5 Este 0 -- -- 93